Decoded Metar for KNKT (CHERRY POINT in NC, USA) (IATA:NKT) | Meteo·Mobile Aviation Weather
aviador You're here:

KNKT Decoded Metar

CHERRY POINT in NC, USA
Report Time2019-04-20 23:54:00
UTC Time2019-04-21 00:10:43
Flight Rules vfr VFR
Wind220° at 13 Gusting to 19 kt
W.Decomp.*RWY 23: 13.0 kt HW 0.2 kt LCW
RWY 14: 0.2 kt HW 13.0 kt RCW
Visibility9999 m
Phenomena:N/A
Clouds:Scattered 040 Hf
Broken 220 Hf
Expected CloudBase > 2,000 ft AGL from Temp-Dew spread
Ceiling22,000 ft
Temp18°C (ISA +3)
Dew Point13°C (73% RH)
AAT14.3°C
QNH1010 hPa
Density Alt692 ft
Elevation30 ft
Report Wrong Elevation
Raw Report
KNKT 202354Z 22013G19KT 10SM SCT040 BKN220 18/13 A2984 RMK AO2
SLP100 T01780128 10206 20178 53006=

Extra information for KNKT:More info

Metar Taf Metar & Taf Last 4 Metars F.Rules Stats Wind Profile Meteogram Temp Stats Airport Information Weather charts Add Link Nearby VenuesMetar ALERT Operation Metar Decoded Social comments

AIRNAV info for KNKT